地図

経路データ

SID SEASON NUMBER BASIN SUBBASIN NAME ISO_TIME NATURE LAT LON WMO_WIND WMO_PRES WMO_AGENCY TRACK_TYPE DIST2LAND LANDFALL IFLAG USA_AGENCY USA_ATCF_ID USA_LAT USA_LON USA_RECORD USA_STATUS USA_WIND USA_PRES USA_SSHS USA_R34_NE USA_R34_SE USA_R34_SW USA_R34_NW USA_R50_NE USA_R50_SE USA_R50_SW USA_R50_NW USA_R64_NE USA_R64_SE USA_R64_SW USA_R64_NW USA_POCI USA_ROCI USA_RMW USA_EYE TOKYO_LAT TOKYO_LON TOKYO_GRADE TOKYO_WIND TOKYO_PRES TOKYO_R50_DIR TOKYO_R50_LONG TOKYO_R50_SHORT TOKYO_R30_DIR TOKYO_R30_LONG TOKYO_R30_SHORT TOKYO_LAND CMA_LAT CMA_LON CMA_CAT CMA_WIND CMA_PRES HKO_LAT HKO_LON HKO_CAT HKO_WIND HKO_PRES NEWDELHI_LAT NEWDELHI_LON NEWDELHI_GRADE NEWDELHI_WIND NEWDELHI_PRES NEWDELHI_CI NEWDELHI_DP NEWDELHI_POCI REUNION_LAT REUNION_LON REUNION_TYPE REUNION_WIND REUNION_PRES REUNION_TNUM REUNION_CI REUNION_RMW REUNION_R34_NE REUNION_R34_SE REUNION_R34_SW REUNION_R34_NW REUNION_R50_NE REUNION_R50_SE REUNION_R50_SW REUNION_R50_NW REUNION_R64_NE REUNION_R64_SE REUNION_R64_SW REUNION_R64_NW BOM_LAT BOM_LON BOM_TYPE BOM_WIND BOM_PRES BOM_TNUM BOM_CI BOM_RMW BOM_R34_NE BOM_R34_SE BOM_R34_SW BOM_R34_NW BOM_R50_NE BOM_R50_SE BOM_R50_SW BOM_R50_NW BOM_R64_NE BOM_R64_SE BOM_R64_SW BOM_R64_NW BOM_ROCI BOM_POCI BOM_EYE BOM_POS_METHOD BOM_PRES_METHOD NADI_LAT NADI_LON NADI_CAT NADI_WIND NADI_PRES WELLINGTON_LAT WELLINGTON_LON WELLINGTON_WIND WELLINGTON_PRES DS824_LAT DS824_LON DS824_STAGE DS824_WIND DS824_PRES TD9636_LAT TD9636_LON TD9636_STAGE TD9636_WIND TD9636_PRES TD9635_LAT TD9635_LON TD9635_WIND TD9635_PRES TD9635_ROCI NEUMANN_LAT NEUMANN_LON NEUMANN_CLASS NEUMANN_WIND NEUMANN_PRES MLC_LAT MLC_LON MLC_CLASS MLC_WIND MLC_PRES USA_GUST BOM_GUST BOM_GUST_PER REUNION_GUST REUNION_GUST_PER USA_SEAHGT USA_SEARAD_NE USA_SEARAD_SE USA_SEARAD_SW USA_SEARAD_NW STORM_SPEED STORM_DIR
1921205N18089 1921 33 NI BB NOT_NAMED 1921-07-24 00:00:00 TS 18.1000 89.4000 main 375 368 _________O____ -1 18.1000 89.4000 TC 34 1 0
1921205N18089 1921 33 NI BB NOT_NAMED 1921-07-24 03:00:00 TS 18.1600 89.4000 main 368 361 _________PO___ -1 18.1900 89.4000 TC 36 18.1000 89.4000 2 2 0
1921205N18089 1921 33 NI BB NOT_NAMED 1921-07-24 06:00:00 TS 18.2638 89.3994 main 361 354 _________OP___ -1 18.3000 89.4000 TC 39 18.2094 89.3985 2 2 0
1921205N18089 1921 33 NI BB NOT_NAMED 1921-07-24 09:00:00 TS 18.3921 89.3989 main 354 347 _________PP___ -1 18.4425 89.4000 TC 42 18.3250 89.3975 2 3 0
1921205N18089 1921 33 NI BB NOT_NAMED 1921-07-24 12:00:00 TS 18.5266 89.3989 main 347 325 _________OP___ -1 18.6000 89.4000 TC 45 18.4531 89.3978 2 3 4
1921205N18089 1921 33 NI BB NOT_NAMED 1921-07-24 15:00:00 TS 18.6712 89.4000 main 325 314 _________PO___ -1 18.7425 89.4000 TC 45 18.6000 89.4000 3 3 5
1921205N18089 1921 33 NI BB NOT_NAMED 1921-07-24 18:00:00 TS 18.8344 89.4020 main 314 292 _________OP___ -1 18.9000 89.4000 TC 45 18.7687 89.4040 3 4 2
1921205N18089 1921 33 NI BB NOT_NAMED 1921-07-24 21:00:00 TS 19.0250 89.4037 main 292 270 _________PP___ -1 19.1000 89.4000 TC 45 18.9500 89.4075 3 4 2
1921205N18089 1921 33 NI BB NOT_NAMED 1921-07-25 00:00:00 TS 19.2156 89.4036 main 270 248 _________OP___ -1 19.3000 89.4000 TC 45 19.1312 89.4072 3 4 4
1921205N18089 1921 33 NI BB NOT_NAMED 1921-07-25 03:00:00 TS 19.3825 89.4037 main 248 236 _________PO___ -1 19.4650 89.4075 TC 45 19.3000 89.4000 3 3 356
1921205N18089 1921 33 NI BB NOT_NAMED 1921-07-25 06:00:00 TS 19.5136 89.3911 main 236 225 _________OP___ -1 19.6000 89.4000 TC 45 19.4272 89.3822 3 2 352
1921205N18089 1921 33 NI BB NOT_NAMED 1921-07-25 09:00:00 TS 19.6175 89.3538 main 225 213 _________PP___ -1 19.6925 89.3500 TC 45 19.5425 89.3575 3 2 343
1921205N18089 1921 33 NI BB NOT_NAMED 1921-07-25 12:00:00 TS 19.7308 89.3145 main 213 191 _________OP___ -1 19.8000 89.3000 TC 45 19.6616 89.3291 3 3 349
1921205N18089 1921 33 NI BB NOT_NAMED 1921-07-25 15:00:00 TS 19.8925 89.3000 main 191 169 _________PO___ -1 19.9850 89.3000 TC 45 19.8000 89.3000 3 4 0
1921205N18089 1921 33 NI BB NOT_NAMED 1921-07-25 18:00:00 TS 20.0912 89.2915 main 169 146 _________OP___ -1 20.2000 89.3000 TC 45 19.9825 89.2831 3 4 355
1921205N18089 1921 33 NI BB NOT_NAMED 1921-07-25 21:00:00 TS 20.2925 89.2612 main 146 123 _________PP___ -1 20.4000 89.2575 TC 45 20.1850 89.2649 3 4 351
1921205N18089 1921 33 NI BB NOT_NAMED 1921-07-26 00:00:00 TS 20.4975 89.2196 main 123 101 _________OP___ -1 20.6000 89.2000 TC 45 20.3950 89.2393 3 4 349
1921205N18089 1921 33 NI BB NOT_NAMED 1921-07-26 03:00:00 TS 20.7037 89.1787 main 101 78 _________PO___ -1 20.8075 89.1575 TC 45 20.6000 89.2000 3 4 347
1921205N18089 1921 33 NI BB NOT_NAMED 1921-07-26 06:00:00 TS 20.8809 89.1257 main 78 67 _________OP___ -1 21.0000 89.1000 TC 45 20.7618 89.1514 3 3 339
1921205N18089 1921 33 NI BB NOT_NAMED 1921-07-26 09:00:00 TS 21.0237 89.0473 main 67 44 _________PP___ -1 21.1275 89.0074 TC 45 20.9199 89.0872 3 4 332
1921205N18089 1921 33 NI BB NOT_NAMED 1921-07-26 12:00:00 TS 21.1965 88.9522 main 44 11 _________OP___ -1 21.3000 88.9000 TC 45 21.0931 89.0044 3 5 338
1921205N18089 1921 33 NI BB NOT_NAMED 1921-07-26 15:00:00 TS 21.4675 88.8575 main 11 0 _________PO___ -1 21.6350 88.8149 TC 41 21.3000 88.9000 3 6 343
1921205N18089 1921 33 NI BB NOT_NAMED 1921-07-26 18:00:00 TS 21.7982 88.7480 main 10 0 _________OP___ -1 22.0000 88.7000 TC 37 21.5964 88.7961 3 7 339
1921205N18089 1921 33 NI BB NOT_NAMED 1921-07-26 21:00:00 TS 22.1048 88.5989 main 0 0 _________PP___ -1 22.2875 88.5300 TC 33 21.9222 88.6677 3 7 331
1921205N18089 1921 33 NI BB NOT_NAMED 1921-07-27 00:00:00 TS 22.3685 88.4028 main 0 0 _________OP___ -1 22.5000 88.3000 TC 30 22.2369 88.5055 3 6 318
1921205N18089 1921 33 NI BB NOT_NAMED 1921-07-27 03:00:00 TS 22.5613 88.1574 main 0 0 _________PO___ -1 22.6225 88.0149 TC 30 22.5000 88.3000 1 6 302
1921205N18089 1921 33 NI BB NOT_NAMED 1921-07-27 06:00:00 TS 22.6788 87.8734 main 0 0 _________OP___ -1 22.7000 87.7000 TC 30 22.6576 88.0468 1 6 292
1921205N18089 1921 33 NI BB NOT_NAMED 1921-07-27 09:00:00 TS 22.7800 87.5760 main 0 0 _________PP___ -1 22.7999 87.4000 TC 30 22.7601 87.7520 1 6 288
1921205N18089 1921 33 NI BB NOT_NAMED 1921-07-27 12:00:00 TS 22.8663 87.2656 main 0 0 _________OP___ -1 22.9000 87.1000 TC 30 22.8325 87.4312 1 6 287
1921205N18089 1921 33 NI BB NOT_NAMED 1921-07-27 15:00:00 TS 22.9499 86.9537 main 0 0 _________PO___ -1 22.9999 86.8074 TC 30 22.9000 87.1000 1 6 288
1921205N18089 1921 33 NI BB NOT_NAMED 1921-07-27 18:00:00 TS 23.0519 86.6471 main 0 0 _________OP___ -1 23.1000 86.5000 TC 30 23.0037 86.7943 1 6 289
1921205N18089 1921 33 NI BB NOT_NAMED 1921-07-27 21:00:00 TS 23.1535 86.3224 main 0 0 _________PP___ -1 23.1999 86.1649 TC 30 23.1070 86.4799 1 7 288
1921205N18089 1921 33 NI BB NOT_NAMED 1921-07-28 00:00:00 TS 23.2534 85.9753 main 0 0 _________OP___ -1 23.3000 85.8000 TC 30 23.2068 86.1505 1 7 287
1921205N18089 1921 33 NI BB NOT_NAMED 1921-07-28 03:00:00 TS 23.3537 85.6038 main 0 0 _________PO___ -1 23.4075 85.4075 TC 30 23.3000 85.8000 1 7 285
1921205N18089 1921 33 NI BB NOT_NAMED 1921-07-28 06:00:00 TS 23.4432 85.2027 main 0 0 _________OP___ -1 23.5000 85.0000 TC 30 23.3865 85.4053 1 8 282
1921205N18089 1921 33 NI BB NOT_NAMED 1921-07-28 09:00:00 TS 23.5114 84.7887 main 0 0 _________PP___ -1 23.5575 84.5849 TC 30 23.4653 84.9925 1 8 280
1921205N18089 1921 33 NI BB NOT_NAMED 1921-07-28 12:00:00 TS 23.5682 84.3917 main 0 0 _________OP___ -1 23.6000 84.2000 TC 30 23.5365 84.5834 1 7 279
1921205N18089 1921 33 NI BB NOT_NAMED 1921-07-28 15:00:00 TS 23.6249 84.0425 main 0 0 _________PO___ -1 23.6498 83.8850 TC 30 23.6000 84.2000 1 6 280
1921205N18089 1921 33 NI BB NOT_NAMED 1921-07-28 18:00:00 TS 23.6669 83.7917 main 0 0 _________OP___ -1 23.7000 83.6000 TC 30 23.6338 83.9835 1 4 280
1921205N18089 1921 33 NI BB NOT_NAMED 1921-07-28 21:00:00 TS 23.6994 83.5910 main 0 0 _________PP___ -1 23.7338 83.4045 TC 30 23.6650 83.7775 1 5 280
1921205N18089 1921 33 NI BB NOT_NAMED 1921-07-29 00:00:00 TS 23.7569 83.2414 main 0 0 _________OP___ -1 23.8000 83.0000 TC 30 23.7139 83.4829 1 10 280
1921205N18089 1921 33 NI BB NOT_NAMED 1921-07-29 03:00:00 TS 23.8642 82.5525 main 0 0 _________PO___ -1 23.9284 82.1050 TC 30 23.8000 83.0000 1 15 280
1921205N18089 1921 33 NI BB NOT_NAMED 1921-07-29 06:00:00 TS 24.0297 81.5854 main 0 0 _________OP___ -1 24.1000 81.0000 TC 30 23.9594 82.1709 1 19 281
1921205N18089 1921 33 NI BB NOT_NAMED 1921-07-29 09:00:00 TS 24.2279 80.5616 main 0 0 _________PP___ -1 24.3074 79.9703 TC 30 24.1483 81.1529 1 19 282
1921205N18089 1921 33 NI BB NOT_NAMED 1921-07-29 12:00:00 TS 24.4187 79.5290 main 0 0 _________OP___ -1 24.5000 79.0000 TC 30 24.3374 80.0581 1 18 280
1921205N18089 1921 33 NI BB NOT_NAMED 1921-07-29 15:00:00 TS 24.5608 78.5848 main 0 0 _________PO___ -1 24.6216 78.1696 TC 30 24.5000 79.0000 1 16 278
1921205N18089 1921 33 NI AS NOT_NAMED 1921-07-29 18:00:00 TS 24.6523 77.7727 main 0 0 _________OP___ -1 24.7000 77.4000 TC 30 24.6047 78.1454 1 15 276
1921205N18089 1921 33 NI AS NOT_NAMED 1921-07-29 21:00:00 TS 24.7202 76.9767 main 0 0 _________PP___ -1 24.7570 76.6073 TC 30 24.6835 77.3461 1 14 275
1921205N18089 1921 33 NI AS NOT_NAMED 1921-07-30 00:00:00 TS 24.7728 76.1869 main 0 0 _________OP___ -1 24.8000 75.8000 TC 30 24.7457 76.5738 1 15 274
1921205N18089 1921 33 NI AS NOT_NAMED 1921-07-30 03:00:00 TS 24.8249 75.3750 main 0 0 _________PO___ -1 24.8498 74.9500 TC 30 24.8000 75.8000 1 15 274
1921205N18089 1921 33 NI AS NOT_NAMED 1921-07-30 06:00:00 TS 24.8785 74.5288 main 0 0 _________OP___ -1 24.9000 74.1000 TC 30 24.8569 74.9576 1 15 274
1921205N18089 1921 33 NI AS NOT_NAMED 1921-07-30 09:00:00 TS 24.9285 73.6948 main 0 0 _________PP___ -1 24.9497 73.2775 TC 30 24.9073 74.1122 1 15 274
1921205N18089 1921 33 NI AS NOT_NAMED 1921-07-30 12:00:00 TS 24.9770 72.8929 main 0 0 _________OP___ -1 25.0000 72.5000 TC 30 24.9539 73.2857 1 14 274
1921205N18089 1921 33 NI AS NOT_NAMED 1921-07-30 15:00:00 TS 25.0248 72.1387 main 0 0 _________PO___ -1 25.0496 71.7775 TC 30 25.0000 72.5000 1 13 274
1921205N18089 1921 33 NI AS NOT_NAMED 1921-07-30 18:00:00 TS 25.0705 71.4832 main 0 0 _________OP___ -1 25.1000 71.1000 TC 30 25.0483 71.7707 1 12 275
1921205N18089 1921 33 NI AS NOT_NAMED 1921-07-30 21:00:00 TS 25.1194 70.8309 main 0 0 _________PP___ -1 25.1506 70.4451 TC 30 25.0986 71.0881 1 11 275
1921205N18089 1921 33 NI AS NOT_NAMED 1921-07-31 00:00:00 TS 25.1665 70.2243 main 0 0 _________OP___ -1 25.2000 69.8000 TC 30 25.1497 70.4364 1 9 275
1921205N18089 1921 33 NI AS NOT_NAMED 1921-07-31 03:00:00 NR 25.2000 69.8000 main 0 __________O___ -1 TC 25.2000 69.8000 1 8 275

IBTrACS Databaseについて

本データベースは、米国NOAAが公開する1842年以降の世界の熱帯低気圧のベストトラックデータアーカイブInternational Best Track Archive for Climate Stewardship (IBTrACS)を、ウェブで閲覧しやすい形式に変換したものです。

最終更新日:2021-10-21